Time;durP1;ratioP1;P1;durP2;ratioP2;P2;SDS_P1;SDS_P2;PMS_P1;PMS_P2;Temp;Humidity;BMP_temperature;BMP_pressure;BME280_temperature;BME280_humidity;BME280_pressure;Samples;Min_cycle;Max_cycle;Signal;HPM_P1;HPM_P2
2022/06/27 00:01:19;;;;;;;7.63;6.78;;;;;;;;;;5038049;27;92452;-71
2022/06/27 00:03:46;;;;;;;7.38;6.28;;;;;;;;;;5046730;27;92442;-71
2022/06/27 00:06:13;;;;;;;14.05;6.10;;;;;;;;;;5048427;27;93029;-71
2022/06/27 00:08:40;;;;;;;9.38;6.45;;;;;;;;;;5037978;27;95849;-71
2022/06/27 00:11:06;;;;;;;8.63;6.00;;;;;;;;;;5047463;27;94246;-71
2022/06/27 00:13:32;;;;;;;6.55;5.90;;;;;;;;;;5045079;27;94191;-71
2022/06/27 00:15:59;;;;;;;6.82;6.20;;;;;;;;;;5050342;27;92526;-71
2022/06/27 00:18:34;;;;;;;7.78;6.22;;;;;;;;;;5035611;27;92991;-71
2022/06/27 00:21:00;;;;;;;6.45;5.78;;;;;;;;;;5048833;27;94156;-71
2022/06/27 00:23:27;;;;;;;6.55;6.00;;;;;;;;;;5053975;27;93323;-71
2022/06/27 00:25:53;;;;;;;10.68;6.43;;;;;;;;;;5052629;27;94010;-71
2022/06/27 00:28:19;;;;;;;10.95;6.82;;;;;;;;;;5045552;27;93412;-71
2022/06/27 00:30:46;;;;;;;6.93;6.22;;;;;;;;;;5047497;27;92813;-71
2022/06/27 00:33:12;;;;;;;6.95;6.35;;;;;;;;;;5048717;27;95837;-71
2022/06/27 00:35:39;;;;;;;7.75;6.85;;;;;;;;;;5034548;27;92833;-70
2022/06/27 00:38:05;;;;;;;7.95;6.05;;;;;;;;;;5037568;27;94063;-70
2022/06/27 00:40:32;;;;;;;8.32;5.93;;;;;;;;;;5046681;27;93161;-70
2022/06/27 00:42:58;;;;;;;7.97;5.88;;;;;;;;;;5035425;27;92849;-70
2022/06/27 00:45:25;;;;;;;8.38;5.93;;;;;;;;;;5036096;27;92951;-70
2022/06/27 00:47:51;;;;;;;9.07;6.22;;;;;;;;;;5035058;27;93831;-70
2022/06/27 00:50:17;;;;;;;6.20;5.40;;;;;;;;;;5021012;28;91774;-70
2022/06/27 00:52:44;;;;;;;7.78;6.20;;;;;;;;;;5035764;27;93367;-70
2022/06/27 00:55:12;;;;;;;6.70;5.68;;;;;;;;;;5034315;27;92485;-70
2022/06/27 00:57:38;;;;;;;6.18;5.68;;;;;;;;;;5016557;28;94907;-70
2022/06/27 01:00:06;;;;;;;12.55;5.57;;;;;;;;;;5035896;27;93086;-70
2022/06/27 01:02:32;;;;;;;11.48;6.07;;;;;;;;;;5039336;27;92528;-70
2022/06/27 01:04:59;;;;;;;8.75;6.43;;;;;;;;;;5040979;27;93861;-71
2022/06/27 01:07:25;;;;;;;8.75;6.88;;;;;;;;;;5035271;27;93601;-70
2022/06/27 01:09:52;;;;;;;9.40;6.25;;;;;;;;;;5039998;27;92502;-70
2022/06/27 01:12:19;;;;;;;7.05;6.35;;;;;;;;;;5057208;27;92843;-70
2022/06/27 01:14:46;;;;;;;12.75;7.05;;;;;;;;;;5035818;27;91710;-71
2022/06/27 01:17:12;;;;;;;10.98;6.28;;;;;;;;;;5024090;27;94747;-71
2022/06/27 01:19:40;;;;;;;7.72;6.90;;;;;;;;;;5016769;27;94096;-71
2022/06/27 01:22:08;;;;;;;8.52;6.85;;;;;;;;;;5015625;28;95011;-71
2022/06/27 01:24:34;;;;;;;11.60;7.20;;;;;;;;;;5043441;27;95822;-71
2022/06/27 01:27:05;;;;;;;8.40;6.85;;;;;;;;;;5036747;27;94050;-71
2022/06/27 01:29:31;;;;;;;8.43;7.47;;;;;;;;;;5036290;27;94021;-71
2022/06/27 01:31:58;;;;;;;9.55;7.30;;;;;;;;;;5024019;28;93917;-71
2022/06/27 01:34:30;;;;;;;11.48;7.38;;;;;;;;;;5036184;27;93282;-71
2022/06/27 01:36:58;;;;;;;8.55;7.38;;;;;;;;;;5035336;27;95315;-71
2022/06/27 01:39:26;;;;;;;7.72;7.05;;;;;;;;;;5022545;28;94699;-71
2022/06/27 01:42:01;;;;;;;15.10;8.18;;;;;;;;;;5016114;27;92486;-71
2022/06/27 01:44:30;;;;;;;12.83;8.03;;;;;;;;;;5016412;28;94253;-71
2022/06/27 01:46:59;;;;;;;9.93;7.68;;;;;;;;;;5022108;27;96126;-71
2022/06/27 01:49:30;;;;;;;8.20;6.95;;;;;;;;;;5016816;28;92557;-72
2022/06/27 01:51:57;;;;;;;9.98;7.82;;;;;;;;;;5015932;27;95616;-71
2022/06/27 01:54:24;;;;;;;10.95;8.65;;;;;;;;;;5036160;27;92992;-72
2022/06/27 01:56:51;;;;;;;18.40;7.95;;;;;;;;;;5035980;27;92570;-71
2022/06/27 01:59:23;;;;;;;10.15;7.50;;;;;;;;;;5026492;27;93099;-71
2022/06/27 02:01:54;;;;;;;8.10;7.22;;;;;;;;;;5028009;27;92446;-71
2022/06/27 02:04:22;;;;;;;11.27;7.95;;;;;;;;;;5042616;27;92840;-71
2022/06/27 02:06:48;;;;;;;15.55;8.45;;;;;;;;;;5020831;27;93385;-71
2022/06/27 02:09:15;;;;;;;10.35;7.88;;;;;;;;;;5027644;27;92573;-71
2022/06/27 02:11:43;;;;;;;8.43;7.38;;;;;;;;;;5026113;27;94912;-71
2022/06/27 02:14:13;;;;;;;8.40;7.60;;;;;;;;;;5025033;27;95407;-71
2022/06/27 02:16:41;;;;;;;11.98;8.32;;;;;;;;;;5019428;28;92495;-71
2022/06/27 02:19:11;;;;;;;11.63;7.80;;;;;;;;;;5015227;28;95810;-71
2022/06/27 02:21:38;;;;;;;13.45;7.82;;;;;;;;;;5024830;27;92635;-71
2022/06/27 02:24:07;;;;;;;14.55;8.60;;;;;;;;;;5047423;27;92975;-71
2022/06/27 02:26:33;;;;;;;10.45;8.10;;;;;;;;;;5050944;27;93801;-71
2022/06/27 02:29:00;;;;;;;11.45;7.68;;;;;;;;;;5047955;27;91724;-71
2022/06/27 02:31:30;;;;;;;8.38;7.60;;;;;;;;;;5034678;27;93108;-70
2022/06/27 02:33:57;;;;;;;17.80;8.00;;;;;;;;;;5033105;27;94172;-71
2022/06/27 02:36:27;;;;;;;10.55;8.07;;;;;;;;;;5020531;28;94997;-71
2022/06/27 02:38:54;;;;;;;9.93;8.02;;;;;;;;;;5017445;27;97534;-71
2022/06/27 02:41:25;;;;;;;14.10;7.80;;;;;;;;;;5031925;27;93061;-71
2022/06/27 02:43:54;;;;;;;10.82;8.30;;;;;;;;;;5024785;27;94914;-71
2022/06/27 02:46:21;;;;;;;9.63;8.43;;;;;;;;;;5048505;27;94726;-71
2022/06/27 02:48:49;;;;;;;11.20;8.25;;;;;;;;;;5034418;27;93104;-71
2022/06/27 02:51:19;;;;;;;8.27;7.57;;;;;;;;;;5034261;27;92886;-71
2022/06/27 02:53:53;;;;;;;8.30;7.60;;;;;;;;;;5015628;28;92622;-71
2022/06/27 02:56:45;;;;;;;10.45;7.68;;;;;;;;;;5032848;27;92770;-71
2022/06/27 02:59:28;;;;;;;8.98;8.18;;;;;;;;;;5017688;27;94863;-71
2022/06/27 03:01:56;;;;;;;9.40;8.18;;;;;;;;;;5028533;28;96373;-71
2022/06/27 03:04:38;;;;;;;13.20;8.20;;;;;;;;;;5017411;28;96239;-71
2022/06/27 03:07:05;;;;;;;9.15;8.20;;;;;;;;;;5041052;27;93248;-71
2022/06/27 03:09:34;;;;;;;8.20;7.60;;;;;;;;;;5014844;28;92646;-71
2022/06/27 03:12:00;;;;;;;12.73;8.35;;;;;;;;;;5015461;28;93996;-71
2022/06/27 03:14:30;;;;;;;12.68;8.18;;;;;;;;;;5025775;27;93562;-71
2022/06/27 03:16:56;;;;;;;22.05;8.32;;;;;;;;;;5052466;27;92561;-71
2022/06/27 03:19:26;;;;;;;9.23;8.32;;;;;;;;;;5029904;27;93082;-71
2022/06/27 03:22:07;;;;;;;11.80;8.48;;;;;;;;;;5018963;28;93171;-71
2022/06/27 03:24:33;;;;;;;11.82;8.15;;;;;;;;;;5021185;27;93126;-71
2022/06/27 03:27:00;;;;;;;17.08;8.85;;;;;;;;;;5015998;28;98233;-71
2022/06/27 03:29:27;;;;;;;11.75;8.55;;;;;;;;;;5018140;27;92490;-71
2022/06/27 03:31:56;;;;;;;9.85;8.82;;;;;;;;;;5035913;27;93154;-71
2022/06/27 03:34:23;;;;;;;14.30;8.43;;;;;;;;;;5018680;28;93325;-71
2022/06/27 03:37:00;;;;;;;14.40;10.10;;;;;;;;;;5035737;27;92465;-71
2022/06/27 03:39:27;;;;;;;13.75;9.73;;;;;;;;;;5036420;27;92473;-71
2022/06/27 03:41:53;;;;;;;12.90;8.82;;;;;;;;;;5024566;28;95538;-71
2022/06/27 03:44:19;;;;;;;10.43;8.25;;;;;;;;;;5044893;27;91855;-71
2022/06/27 03:46:50;;;;;;;11.48;9.63;;;;;;;;;;5021276;27;93924;-71
2022/06/27 03:52:14;;;;;;;12.50;9.50;;;;;;;;;;5036121;27;95774;-70
2022/06/27 03:54:40;;;;;;;12.38;9.60;;;;;;;;;;5020434;27;95547;-70
2022/06/27 03:57:06;;;;;;;11.48;9.70;;;;;;;;;;5025602;28;92610;-70
2022/06/27 03:59:33;;;;;;;10.52;9.45;;;;;;;;;;5017690;28;93001;-70
2022/06/27 04:02:00;;;;;;;10.48;9.45;;;;;;;;;;5020644;27;96076;-70
2022/06/27 04:04:36;;;;;;;17.00;10.15;;;;;;;;;;5029044;28;92445;-70
2022/06/27 04:07:03;;;;;;;14.00;11.00;;;;;;;;;;5034444;27;96749;-70
2022/06/27 04:09:30;;;;;;;11.57;10.10;;;;;;;;;;5029191;28;92212;-70
2022/06/27 04:11:57;;;;;;;17.52;11.10;;;;;;;;;;5017748;27;93148;-70
2022/06/27 04:14:43;;;;;;;16.55;9.48;;;;;;;;;;5039095;27;94060;-70
2022/06/27 04:17:24;;;;;;;14.85;10.18;;;;;;;;;;5016822;28;94958;-70
2022/06/27 04:20:09;;;;;;;15.43;10.68;;;;;;;;;;5032495;27;94780;-70
2022/06/27 04:22:56;;;;;;;11.85;10.75;;;;;;;;;;5034990;27;92875;-71
2022/06/27 04:25:43;;;;;;;11.65;10.30;;;;;;;;;;5030994;27;93311;-70
2022/06/27 04:28:11;;;;;;;10.57;9.55;;;;;;;;;;5028173;27;95507;-71
2022/06/27 04:30:40;;;;;;;15.25;10.48;;;;;;;;;;5030165;27;95861;-70
2022/06/27 04:33:07;;;;;;;13.93;10.63;;;;;;;;;;5025661;27;95527;-70
2022/06/27 04:35:34;;;;;;;12.07;10.85;;;;;;;;;;5017774;28;93296;-70
2022/06/27 04:38:01;;;;;;;15.60;11.23;;;;;;;;;;5024462;27;92508;-70
2022/06/27 04:40:58;;;;;;;11.98;10.20;;;;;;;;;;5015605;27;93933;-70
2022/06/27 04:43:27;;;;;;;10.73;9.75;;;;;;;;;;5023383;28;95521;-70
2022/06/27 04:45:54;;;;;;;13.20;9.43;;;;;;;;;;5032931;27;92672;-70
2022/06/27 04:48:41;;;;;;;11.50;9.27;;;;;;;;;;5021980;27;95518;-70
2022/06/27 04:51:09;;;;;;;11.00;9.88;;;;;;;;;;5037568;27;93470;-70
2022/06/27 04:53:38;;;;;;;13.98;9.13;;;;;;;;;;5020221;28;92550;-70
2022/06/27 04:56:06;;;;;;;12.85;9.18;;;;;;;;;;5025005;27;95678;-70
2022/06/27 04:58:33;;;;;;;12.07;9.10;;;;;;;;;;5051552;27;92985;-70
2022/06/27 05:01:00;;;;;;;12.30;9.38;;;;;;;;;;5015836;28;93837;-70
2022/06/27 05:04:05;;;;;;;9.77;8.77;;;;;;;;;;5021131;27;92530;-70
2022/06/27 05:06:35;;;;;;;9.90;8.95;;;;;;;;;;5029255;27;92515;-71
2022/06/27 05:09:04;;;;;;;11.57;9.00;;;;;;;;;;5025936;27;96127;-72
2022/06/27 05:11:31;;;;;;;14.55;9.07;;;;;;;;;;5017145;27;93318;-72
2022/06/27 05:13:57;;;;;;;9.27;8.35;;;;;;;;;;5041223;27;92460;-70
2022/06/27 05:16:47;;;;;;;10.77;8.57;;;;;;;;;;5038789;27;92876;-71
2022/06/27 05:19:14;;;;;;;16.40;9.50;;;;;;;;;;5016863;28;93596;-71
2022/06/27 05:21:44;;;;;;;10.60;9.35;;;;;;;;;;5024638;28;95210;-71
2022/06/27 05:24:11;;;;;;;10.43;9.30;;;;;;;;;;5022695;27;94905;-71
2022/06/27 05:26:38;;;;;;;12.80;10.55;;;;;;;;;;5017543;27;91849;-70
2022/06/27 05:29:05;;;;;;;14.85;9.20;;;;;;;;;;5015255;28;93219;-71
2022/06/27 05:31:33;;;;;;;13.80;9.02;;;;;;;;;;5016248;27;95671;-69
2022/06/27 05:34:00;;;;;;;14.57;9.25;;;;;;;;;;5015304;28;94868;-72
2022/06/27 05:36:27;;;;;;;19.05;9.73;;;;;;;;;;5016128;27;97546;-69
2022/06/27 05:38:53;;;;;;;11.02;9.20;;;;;;;;;;5047994;27;93273;-69
2022/06/27 05:41:21;;;;;;;16.05;9.05;;;;;;;;;;5016984;27;95176;-69
2022/06/27 05:43:51;;;;;;;11.95;9.07;;;;;;;;;;5027014;27;93273;-70
2022/06/27 05:46:20;;;;;;;11.45;9.30;;;;;;;;;;5017120;28;92567;-69
2022/06/27 05:49:01;;;;;;;14.10;9.32;;;;;;;;;;5050053;27;92743;-69
2022/06/27 05:51:30;;;;;;;9.93;8.93;;;;;;;;;;5020498;27;93389;-71
2022/06/27 05:53:57;;;;;;;15.10;8.80;;;;;;;;;;5024354;27;93273;-70
2022/06/27 05:56:24;;;;;;;11.43;8.35;;;;;;;;;;5034404;27;93836;-72
2022/06/27 05:58:51;;;;;;;10.93;7.68;;;;;;;;;;5029631;27;96302;-70
2022/06/27 06:01:17;;;;;;;10.27;7.30;;;;;;;;;;5024586;27;92599;-71
2022/06/27 06:03:45;;;;;;;10.00;8.35;;;;;;;;;;5021131;27;95238;-71
2022/06/27 06:06:12;;;;;;;9.38;7.35;;;;;;;;;;5014627;28;92860;-72
2022/06/27 06:08:39;;;;;;;14.15;8.38;;;;;;;;;;5034185;27;92996;-71
2022/06/27 06:11:06;;;;;;;8.38;7.50;;;;;;;;;;5013323;27;93550;-71
2022/06/27 06:13:34;;;;;;;10.52;7.88;;;;;;;;;;5018083;28;92653;-71
2022/06/27 06:16:01;;;;;;;15.48;8.32;;;;;;;;;;5025372;27;95656;-71
2022/06/27 06:18:30;;;;;;;14.55;9.02;;;;;;;;;;5021479;27;93337;-71
2022/06/27 06:20:57;;;;;;;9.13;7.72;;;;;;;;;;5020545;27;92949;-72
2022/06/27 06:23:26;;;;;;;7.80;7.00;;;;;;;;;;5020419;27;97893;-70
2022/06/27 06:25:53;;;;;;;11.07;7.22;;;;;;;;;;5045656;27;92503;-71
2022/06/27 06:28:20;;;;;;;13.95;7.63;;;;;;;;;;5046605;27;93816;-71
2022/06/27 06:30:47;;;;;;;11.82;7.80;;;;;;;;;;5020674;28;93071;-71
2022/06/27 06:33:14;;;;;;;12.95;8.50;;;;;;;;;;5021588;27;93036;-71
2022/06/27 06:35:40;;;;;;;12.63;7.28;;;;;;;;;;5015808;28;92896;-71
2022/06/27 06:38:08;;;;;;;10.77;6.18;;;;;;;;;;5033023;27;95032;-71
2022/06/27 06:40:34;;;;;;;7.82;5.85;;;;;;;;;;5035188;27;92251;-71
2022/06/27 06:43:01;;;;;;;13.38;5.65;;;;;;;;;;5047710;27;92487;-70
2022/06/27 06:45:43;;;;;;;13.73;5.85;;;;;;;;;;5045178;27;92441;-70
2022/06/27 06:48:17;;;;;;;8.55;5.55;;;;;;;;;;5030653;27;94906;-70
2022/06/27 06:50:44;;;;;;;11.75;5.68;;;;;;;;;;5041384;27;93079;-70
2022/06/27 06:53:11;;;;;;;7.22;5.20;;;;;;;;;;5032365;27;92519;-70
2022/06/27 06:55:37;;;;;;;8.75;4.80;;;;;;;;;;5032778;27;94101;-70
2022/06/27 06:58:03;;;;;;;8.43;5.53;;;;;;;;;;5034817;27;94287;-70
2022/06/27 07:00:30;;;;;;;10.48;5.20;;;;;;;;;;5032140;27;92597;-71
2022/06/27 07:02:58;;;;;;;8.60;5.00;;;;;;;;;;5033347;27;94268;-71
2022/06/27 07:05:25;;;;;;;5.18;4.30;;;;;;;;;;5044080;27;92951;-71
2022/06/27 07:07:52;;;;;;;9.30;5.10;;;;;;;;;;5040886;27;92541;-70
2022/06/27 07:10:19;;;;;;;6.03;4.85;;;;;;;;;;5052931;27;94174;-70
2022/06/27 07:12:45;;;;;;;12.32;5.25;;;;;;;;;;5038725;27;96371;-71
2022/06/27 07:15:12;;;;;;;8.35;5.60;;;;;;;;;;5032592;27;96899;-71
2022/06/27 07:17:42;;;;;;;8.45;5.03;;;;;;;;;;5032195;27;93167;-70
2022/06/27 07:20:09;;;;;;;5.43;4.88;;;;;;;;;;5040669;27;92438;-70
2022/06/27 07:22:36;;;;;;;8.63;5.68;;;;;;;;;;5031394;27;93094;-72
2022/06/27 07:25:02;;;;;;;6.72;4.97;;;;;;;;;;5031923;27;93462;-73
2022/06/27 07:27:29;;;;;;;13.48;5.13;;;;;;;;;;5043742;27;92882;-71
2022/06/27 07:29:55;;;;;;;9.70;5.22;;;;;;;;;;5036090;27;92491;-70
2022/06/27 07:32:22;;;;;;;8.38;4.90;;;;;;;;;;5044592;27;92494;-70
2022/06/27 07:34:50;;;;;;;9.32;5.85;;;;;;;;;;5052704;27;94828;-71
2022/06/27 07:37:17;;;;;;;12.60;5.22;;;;;;;;;;5033957;27;95726;-71
2022/06/27 07:39:44;;;;;;;10.25;5.95;;;;;;;;;;5034366;27;92538;-70
2022/06/27 07:42:11;;;;;;;5.65;4.75;;;;;;;;;;5045401;27;93085;-72
2022/06/27 07:44:38;;;;;;;7.72;5.13;;;;;;;;;;5031079;27;93267;-71
2022/06/27 07:47:05;;;;;;;11.13;5.47;;;;;;;;;;5036846;27;93038;-71
2022/06/27 07:49:32;;;;;;;6.20;4.80;;;;;;;;;;5054034;27;93020;-71
2022/06/27 07:51:59;;;;;;;7.07;5.20;;;;;;;;;;5044345;27;92527;-71
2022/06/27 07:54:27;;;;;;;10.88;5.10;;;;;;;;;;5045231;27;93213;-71
2022/06/27 07:56:56;;;;;;;8.07;5.05;;;;;;;;;;5031804;27;94163;-71
2022/06/27 07:59:28;;;;;;;6.35;4.55;;;;;;;;;;5033468;27;93251;-71
2022/06/27 08:01:54;;;;;;;6.97;4.65;;;;;;;;;;5029602;27;94935;-71
2022/06/27 08:04:22;;;;;;;6.80;4.60;;;;;;;;;;5032916;27;93444;-71
2022/06/27 08:06:50;;;;;;;7.82;4.63;;;;;;;;;;5035448;27;92479;-71
2022/06/27 08:09:19;;;;;;;10.20;4.65;;;;;;;;;;5035537;27;92946;-71
2022/06/27 08:11:45;;;;;;;5.65;4.13;;;;;;;;;;5037513;27;93449;-71
2022/06/27 08:14:17;;;;;;;6.68;4.47;;;;;;;;;;5047307;27;93064;-71
2022/06/27 08:16:46;;;;;;;9.57;4.30;;;;;;;;;;5038528;27;93361;-71
2022/06/27 08:19:14;;;;;;;7.22;4.50;;;;;;;;;;5038435;27;91783;-71
2022/06/27 08:21:43;;;;;;;9.13;3.88;;;;;;;;;;5047491;27;92473;-71
2022/06/27 08:24:12;;;;;;;8.95;3.67;;;;;;;;;;5046817;27;93420;-71
2022/06/27 08:26:38;;;;;;;8.30;4.20;;;;;;;;;;5045077;27;95258;-71
2022/06/27 08:29:05;;;;;;;9.82;4.20;;;;;;;;;;5052631;27;95495;-71
2022/06/27 08:31:32;;;;;;;5.18;3.72;;;;;;;;;;5036798;27;93122;-71
2022/06/27 08:34:01;;;;;;;4.32;3.42;;;;;;;;;;5037005;27;92908;-71
2022/06/27 08:36:30;;;;;;;7.03;4.22;;;;;;;;;;5039456;27;93421;-71
2022/06/27 08:39:03;;;;;;;6.95;3.80;;;;;;;;;;5044922;27;92603;-71
2022/06/27 08:41:29;;;;;;;7.85;3.15;;;;;;;;;;5034287;27;93385;-71
2022/06/27 08:43:58;;;;;;;12.38;3.10;;;;;;;;;;5035363;27;92893;-70
2022/06/27 08:46:24;;;;;;;10.40;3.40;;;;;;;;;;5034537;28;92814;-70
2022/06/27 08:48:51;;;;;;;5.07;3.17;;;;;;;;;;5035089;28;93873;-71
2022/06/27 08:51:18;;;;;;;6.00;3.35;;;;;;;;;;5043502;27;96502;-71
2022/06/27 08:53:44;;;;;;;8.65;3.47;;;;;;;;;;5043081;27;92673;-71
2022/06/27 08:56:13;;;;;;;8.82;3.17;;;;;;;;;;5035484;27;94237;-71
2022/06/27 08:58:40;;;;;;;10.40;2.88;;;;;;;;;;5042980;27;92446;-71
2022/06/27 09:01:07;;;;;;;7.18;3.50;;;;;;;;;;5050239;27;94027;-71
2022/06/27 09:03:34;;;;;;;4.82;3.08;;;;;;;;;;5034768;27;93484;-71
2022/06/27 09:06:01;;;;;;;7.85;3.22;;;;;;;;;;5034348;27;92478;-71
2022/06/27 09:08:31;;;;;;;8.10;3.58;;;;;;;;;;5039245;27;93039;-71
2022/06/27 09:10:59;;;;;;;7.93;3.20;;;;;;;;;;5039194;27;94480;-71
2022/06/27 09:13:27;;;;;;;4.75;3.45;;;;;;;;;;5039917;27;92911;-71
2022/06/27 09:15:55;;;;;;;7.50;3.60;;;;;;;;;;5033989;27;95304;-70
2022/06/27 09:18:26;;;;;;;6.38;3.88;;;;;;;;;;5036526;27;92563;-70
2022/06/27 09:20:57;;;;;;;9.60;4.47;;;;;;;;;;5033924;27;93166;-72
2022/06/27 09:23:37;;;;;;;5.27;3.33;;;;;;;;;;5034001;27;93292;-70
2022/06/27 09:26:12;;;;;;;5.10;3.63;;;;;;;;;;5034674;27;92466;-70
2022/06/27 09:28:39;;;;;;;9.38;3.75;;;;;;;;;;5034463;27;93168;-72
2022/06/27 09:31:10;;;;;;;5.78;3.85;;;;;;;;;;5033808;27;93356;-71
2022/06/27 09:33:38;;;;;;;9.37;4.23;;;;;;;;;;5035077;27;92044;-70
2022/06/27 09:36:13;;;;;;;9.70;4.47;;;;;;;;;;5042278;27;93460;-70
2022/06/27 09:38:40;;;;;;;4.03;3.58;;;;;;;;;;5037310;27;94060;-70
2022/06/27 09:41:08;;;;;;;12.65;4.97;;;;;;;;;;5032628;27;94939;-70
2022/06/27 09:43:36;;;;;;;7.03;5.05;;;;;;;;;;5040293;27;93214;-70
2022/06/27 09:46:03;;;;;;;12.18;5.03;;;;;;;;;;5034575;27;92467;-70
2022/06/27 09:48:31;;;;;;;9.95;4.82;;;;;;;;;;5034861;27;94179;-70
2022/06/27 09:50:58;;;;;;;8.15;4.32;;;;;;;;;;5032445;27;93605;-70
2022/06/27 09:53:27;;;;;;;8.25;4.03;;;;;;;;;;5033755;27;92498;-70
2022/06/27 09:55:54;;;;;;;11.23;5.32;;;;;;;;;;5034306;27;93177;-70
2022/06/27 09:58:20;;;;;;;7.57;5.30;;;;;;;;;;5033873;27;92685;-70
2022/06/27 10:00:48;;;;;;;4.97;3.85;;;;;;;;;;5037203;27;92482;-70
2022/06/27 10:03:16;;;;;;;9.63;5.60;;;;;;;;;;5032797;27;93094;-70
2022/06/27 10:05:44;;;;;;;11.10;4.88;;;;;;;;;;5039024;27;94853;-70
2022/06/27 10:08:11;;;;;;;7.90;5.05;;;;;;;;;;5045875;27;95664;-70
2022/06/27 10:10:56;;;;;;;6.90;5.93;;;;;;;;;;5044308;27;93205;-70
2022/06/27 10:13:22;;;;;;;12.10;6.40;;;;;;;;;;5039262;27;92548;-70
2022/06/27 10:15:49;;;;;;;8.77;5.65;;;;;;;;;;5049961;27;92945;-70
2022/06/27 10:18:16;;;;;;;8.55;5.32;;;;;;;;;;5041336;27;94175;-70
2022/06/27 10:20:47;;;;;;;5.10;4.50;;;;;;;;;;5033486;27;93348;-70
2022/06/27 10:23:25;;;;;;;6.70;5.32;;;;;;;;;;5037456;27;93005;-70
2022/06/27 10:25:52;;;;;;;12.68;6.32;;;;;;;;;;5032104;27;92517;-72
2022/06/27 10:28:18;;;;;;;8.13;5.25;;;;;;;;;;5034037;27;94109;-70
2022/06/27 10:30:53;;;;;;;7.07;4.35;;;;;;;;;;5031687;27;97149;-70
2022/06/27 10:33:23;;;;;;;10.25;5.07;;;;;;;;;;5035972;27;93469;-72
2022/06/27 10:35:59;;;;;;;7.13;4.88;;;;;;;;;;5044646;27;93268;-71
2022/06/27 10:38:27;;;;;;;6.60;4.45;;;;;;;;;;5032699;27;93122;-72
2022/06/27 10:40:54;;;;;;;14.48;5.00;;;;;;;;;;5033458;27;93103;-72
2022/06/27 10:43:35;;;;;;;9.02;4.95;;;;;;;;;;5035615;27;93336;-71
2022/06/27 10:46:05;;;;;;;11.05;5.68;;;;;;;;;;5040880;27;92460;-71
2022/06/27 10:48:42;;;;;;;6.10;4.40;;;;;;;;;;5041905;27;93970;-71
2022/06/27 10:51:27;;;;;;;8.82;4.55;;;;;;;;;;5033309;27;94157;-71
2022/06/27 10:54:05;;;;;;;7.65;4.75;;;;;;;;;;5032043;27;92531;-71
2022/06/27 10:56:32;;;;;;;9.52;4.70;;;;;;;;;;5031602;27;94966;-71
2022/06/27 10:58:59;;;;;;;9.70;5.20;;;;;;;;;;5032695;27;92451;-71
2022/06/27 11:01:26;;;;;;;9.90;5.13;;;;;;;;;;5033677;27;92749;-71
2022/06/27 11:03:52;;;;;;;8.85;5.22;;;;;;;;;;5043140;27;92434;-71
2022/06/27 11:06:19;;;;;;;5.88;4.80;;;;;;;;;;5036358;27;94041;-71
2022/06/27 11:08:47;;;;;;;6.60;4.75;;;;;;;;;;5042583;27;93411;-71
2022/06/27 11:11:22;;;;;;;8.27;4.97;;;;;;;;;;5035019;27;94283;-71
2022/06/27 11:13:49;;;;;;;7.35;4.85;;;;;;;;;;5038070;27;92515;-71
2022/06/27 11:16:20;;;;;;;10.38;4.82;;;;;;;;;;5035779;27;92628;-71
2022/06/27 11:18:48;;;;;;;10.23;4.57;;;;;;;;;;5033069;27;93390;-71
2022/06/27 11:21:18;;;;;;;10.18;4.88;;;;;;;;;;5031224;27;95048;-71
2022/06/27 11:23:58;;;;;;;7.68;5.05;;;;;;;;;;5032311;27;95602;-71
2022/06/27 11:26:26;;;;;;;10.13;4.72;;;;;;;;;;5033001;27;94282;-71
2022/06/27 11:34:27;;;;;;;8.90;4.72;;;;;;;;;;5035176;27;92581;-71
2022/06/27 11:36:54;;;;;;;9.75;4.10;;;;;;;;;;5031245;27;93020;-71
2022/06/27 11:39:25;;;;;;;8.00;4.65;;;;;;;;;;5034546;27;92578;-71
2022/06/27 11:41:56;;;;;;;8.73;4.78;;;;;;;;;;5050948;27;92602;-71
2022/06/27 11:44:23;;;;;;;11.77;4.72;;;;;;;;;;5035938;27;92468;-71
2022/06/27 11:46:51;;;;;;;11.88;4.95;;;;;;;;;;5034123;27;96020;-71
2022/06/27 11:49:27;;;;;;;7.50;4.68;;;;;;;;;;5034985;27;92481;-71
2022/06/27 11:51:57;;;;;;;11.48;4.85;;;;;;;;;;5039316;27;93803;-70
2022/06/27 11:54:24;;;;;;;10.15;4.82;;;;;;;;;;5036047;27;94139;-71
2022/06/27 11:56:53;;;;;;;8.50;5.60;;;;;;;;;;5034813;27;93076;-70
2022/06/27 11:59:19;;;;;;;12.60;5.80;;;;;;;;;;5035725;27;93273;-71
2022/06/27 12:01:49;;;;;;;6.05;5.10;;;;;;;;;;5035777;27;92517;-71
2022/06/27 12:04:17;;;;;;;10.23;6.03;;;;;;;;;;5036269;27;93826;-71
2022/06/27 12:06:44;;;;;;;6.32;5.60;;;;;;;;;;5035382;27;93319;-71
2022/06/27 12:09:11;;;;;;;9.80;6.55;;;;;;;;;;5035767;27;92467;-71
2022/06/27 12:11:46;;;;;;;15.27;7.00;;;;;;;;;;5041120;27;94903;-71
2022/06/27 12:14:13;;;;;;;11.95;7.80;;;;;;;;;;5059026;27;94795;-70
2022/06/27 12:16:47;;;;;;;11.23;7.63;;;;;;;;;;5039798;27;93894;-70
2022/06/27 12:19:14;;;;;;;14.35;8.20;;;;;;;;;;5041878;27;94079;-70
2022/06/27 12:21:41;;;;;;;14.60;8.77;;;;;;;;;;5035841;27;92424;-70
2022/06/27 12:24:08;;;;;;;13.07;8.88;;;;;;;;;;5053751;27;93272;-70
2022/06/27 12:26:34;;;;;;;14.00;9.13;;;;;;;;;;5049271;27;94180;-70
2022/06/27 12:29:00;;;;;;;14.73;9.45;;;;;;;;;;5036310;27;91711;-70
2022/06/27 12:31:27;;;;;;;17.00;9.75;;;;;;;;;;5034992;27;93385;-70
2022/06/27 12:33:53;;;;;;;11.90;9.45;;;;;;;;;;5035567;27;93958;-70
2022/06/27 12:36:20;;;;;;;15.27;8.77;;;;;;;;;;5041319;27;95932;-70
2022/06/27 12:38:46;;;;;;;13.82;9.85;;;;;;;;;;5046280;27;94081;-71
2022/06/27 12:41:14;;;;;;;41.15;10.75;;;;;;;;;;5035836;27;92499;-70
2022/06/27 12:43:42;;;;;;;83.50;17.02;;;;;;;;;;5040577;27;94644;-70
2022/06/27 12:46:08;;;;;;;48.88;11.95;;;;;;;;;;5045362;27;94132;-70
2022/06/27 12:48:37;;;;;;;22.77;13.38;;;;;;;;;;5046626;27;93343;-69
2022/06/27 12:51:04;;;;;;;17.60;9.20;;;;;;;;;;5044866;27;93885;-69
2022/06/27 12:53:30;;;;;;;8.20;4.85;;;;;;;;;;5035479;27;93310;-69
2022/06/27 12:55:58;;;;;;;9.82;4.45;;;;;;;;;;5038226;27;92489;-70
2022/06/27 12:58:25;;;;;;;8.10;3.53;;;;;;;;;;5034584;27;93125;-70
2022/06/27 13:00:51;;;;;;;6.45;4.07;;;;;;;;;;5032055;27;94979;-69
2022/06/27 13:03:18;;;;;;;6.28;3.95;;;;;;;;;;5035325;27;96246;-71
2022/06/27 13:05:44;;;;;;;4.45;2.75;;;;;;;;;;5034622;27;95895;-69
2022/06/27 13:08:11;;;;;;;13.35;3.88;;;;;;;;;;5035752;27;94253;-69
2022/06/27 13:10:38;;;;;;;8.07;3.30;;;;;;;;;;5038285;27;93158;-69
2022/06/27 13:13:05;;;;;;;7.07;2.78;;;;;;;;;;5034904;27;93273;-69
2022/06/27 13:15:34;;;;;;;7.22;3.28;;;;;;;;;;5049912;27;92540;-69
2022/06/27 13:18:01;;;;;;;4.88;3.22;;;;;;;;;;5043629;27;93966;-69
2022/06/27 13:20:28;;;;;;;8.13;3.80;;;;;;;;;;5038634;27;92447;-69
2022/06/27 13:22:54;;;;;;;8.32;3.78;;;;;;;;;;5036719;27;93430;-69
2022/06/27 13:25:21;;;;;;;9.15;3.40;;;;;;;;;;5036522;27;96924;-69
2022/06/27 13:27:48;;;;;;;4.80;3.25;;;;;;;;;;5035721;27;92518;-69
2022/06/27 13:30:15;;;;;;;3.97;2.97;;;;;;;;;;5040334;27;93147;-69
2022/06/27 13:32:42;;;;;;;3.10;2.50;;;;;;;;;;5036254;27;92525;-69
2022/06/27 13:35:09;;;;;;;4.32;2.95;;;;;;;;;;5034118;27;92830;-69
2022/06/27 13:37:36;;;;;;;4.32;3.20;;;;;;;;;;5035627;27;95907;-69
2022/06/27 13:40:04;;;;;;;3.45;2.63;;;;;;;;;;5039812;27;93102;-69
2022/06/27 13:42:32;;;;;;;3.70;2.58;;;;;;;;;;5034514;27;93949;-69
2022/06/27 13:44:58;;;;;;;4.70;2.80;;;;;;;;;;5031466;27;94248;-69
2022/06/27 13:47:25;;;;;;;7.93;3.72;;;;;;;;;;5039582;27;93577;-70
2022/06/27 13:49:54;;;;;;;4.43;3.25;;;;;;;;;;5031149;27;95203;-70
2022/06/27 13:52:20;;;;;;;5.22;3.83;;;;;;;;;;5039347;27;94562;-69
2022/06/27 13:54:47;;;;;;;6.28;3.80;;;;;;;;;;5035857;27;93233;-69
2022/06/27 13:57:13;;;;;;;8.88;4.07;;;;;;;;;;5037071;27;94591;-70
2022/06/27 13:59:47;;;;;;;10.18;4.10;;;;;;;;;;5033577;27;94322;-70
2022/06/27 14:02:13;;;;;;;4.05;2.80;;;;;;;;;;5039195;27;94136;-69
2022/06/27 14:04:40;;;;;;;4.78;3.13;;;;;;;;;;5034024;27;94253;-70
2022/06/27 14:09:51;;;;;;;4.03;2.22;;;;;;;;;;5029850;27;92720;-69
2022/06/27 14:12:18;;;;;;;3.65;2.53;;;;;;;;;;5031486;27;93831;-69
2022/06/27 14:14:44;;;;;;;13.73;3.22;;;;;;;;;;5035252;27;94980;-69
2022/06/27 14:17:11;;;;;;;3.85;2.75;;;;;;;;;;5034572;27;95440;-69
2022/06/27 14:19:38;;;;;;;5.93;2.80;;;;;;;;;;5034254;27;93280;-69
2022/06/27 14:22:04;;;;;;;6.05;2.90;;;;;;;;;;5042417;27;93173;-69
2022/06/27 14:24:31;;;;;;;5.00;2.85;;;;;;;;;;5036269;27;92868;-69
2022/06/27 14:26:58;;;;;;;3.85;2.38;;;;;;;;;;5036150;27;92828;-69
2022/06/27 14:29:24;;;;;;;5.20;2.60;;;;;;;;;;5037621;27;93921;-69
2022/06/27 14:31:51;;;;;;;3.60;2.70;;;;;;;;;;5031230;27;94421;-69
2022/06/27 14:34:18;;;;;;;7.68;3.15;;;;;;;;;;5029855;27;92489;-69
2022/06/27 14:36:47;;;;;;;6.70;2.53;;;;;;;;;;5031643;27;94682;-69
2022/06/27 14:39:14;;;;;;;4.60;2.13;;;;;;;;;;5032203;27;96865;-69
2022/06/27 14:41:41;;;;;;;2.38;1.90;;;;;;;;;;5030072;27;93046;-69
2022/06/27 14:44:08;;;;;;;4.10;2.20;;;;;;;;;;5039742;27;93895;-69
2022/06/27 14:46:34;;;;;;;5.10;2.05;;;;;;;;;;5037341;27;93307;-69
2022/06/27 14:49:01;;;;;;;3.90;1.95;;;;;;;;;;5034592;27;93834;-70
2022/06/27 14:51:28;;;;;;;3.40;2.10;;;;;;;;;;5032878;27;94345;-70
2022/06/27 14:53:54;;;;;;;2.97;2.13;;;;;;;;;;5035957;27;93257;-69
2022/06/27 14:56:24;;;;;;;2.65;1.63;;;;;;;;;;5032195;27;93549;-69